createdAt,value
2018-04-23T00:00:24.878Z,81.01
2018-04-23T00:01:24.900Z,81.3
2018-04-23T00:02:24.927Z,81.78
2018-04-23T00:03:24.949Z,81.34
2018-04-23T00:04:24.972Z,81.63
2018-04-23T00:05:39.657Z,81.24
2018-04-23T00:06:25.026Z,81.43
2018-04-23T00:08:25.070Z,81.63
2018-04-23T00:09:25.096Z,81.53
2018-04-23T00:10:24.858Z,81.05
2018-04-23T00:12:25.265Z,81.24
2018-04-23T00:13:25.192Z,81.43
2018-04-23T00:15:25.236Z,81.43
2018-04-23T00:16:25.002Z,81.63
2018-04-23T00:17:25.286Z,81.53
2018-04-23T00:18:25.049Z,81.34
2018-04-23T00:19:25.332Z,82.1
2018-04-23T00:20:25.097Z,81.34
2018-04-23T00:21:25.381Z,82.1
2018-04-23T00:22:25.406Z,81.72
2018-04-23T00:23:25.428Z,81.92
2018-04-23T00:24:25.457Z,81.72
2018-04-23T00:25:25.479Z,81.82
2018-04-23T00:26:25.501Z,81.82
2018-04-23T00:27:25.533Z,81.63
2018-04-23T00:28:25.289Z,82.4
2018-04-23T00:30:25.595Z,82.49
2018-04-23T00:31:25.623Z,83.07
2018-04-23T00:32:25.645Z,83.12
2018-04-23T00:34:25.692Z,83.12
2018-04-23T00:35:25.458Z,83.03
2018-04-23T00:36:25.743Z,83.51
2018-04-23T00:37:40.424Z,83.6
2018-04-23T00:38:25.791Z,84.08
2018-04-23T00:39:25.811Z,83.89
2018-04-23T00:40:25.836Z,83.89
2018-04-23T00:41:25.860Z,83.98
2018-04-23T00:42:25.937Z,84.37
2018-04-23T00:44:25.941Z,85.14
2018-04-23T00:46:25.982Z,85.04
2018-04-23T00:47:26.002Z,85.24
2018-04-23T00:48:26.027Z,85.67
2018-04-23T00:49:26.052Z,86.25
2018-04-23T00:50:25.818Z,85.96
2018-04-23T00:51:25.840Z,85.96
2018-04-23T00:52:26.130Z,86.34
2018-04-23T00:53:40.818Z,86.15
2018-04-23T00:54:26.171Z,86.72
2018-04-23T00:55:26.196Z,86.34
2018-04-23T00:56:26.220Z,86.63
2018-04-23T00:57:25.986Z,87.01
2018-04-23T00:58:26.273Z,87.01
2018-04-23T00:59:26.291Z,87.11
2018-04-23T01:00:26.057Z,87.59
2018-04-23T01:01:26.345Z,87.11
2018-04-23T01:02:26.104Z,87.49
2018-04-23T01:03:26.389Z,88.26
2018-04-23T01:04:26.414Z,87.98
2018-04-23T01:05:26.435Z,88.45
2018-04-23T01:06:26.200Z,88.84
2018-04-23T01:07:26.483Z,89.12
2018-04-23T01:08:26.515Z,89.41
2018-04-23T01:09:41.192Z,89.08
2018-04-23T01:10:26.554Z,89.41
2018-04-23T01:11:26.577Z,89.47
2018-04-23T01:12:26.603Z,90.04
2018-04-23T01:13:26.625Z,89.94
2018-04-23T01:14:26.649Z,90.33
2018-04-23T01:15:26.675Z,90.04
2018-04-23T01:16:26.706Z,90.42
2018-04-23T01:17:26.722Z,90.61
2018-04-23T01:18:26.486Z,90.33
2018-04-23T01:19:26.778Z,90.71
2018-04-23T01:21:26.818Z,90.42
2018-04-23T01:22:26.842Z,91.19
2018-04-23T01:23:26.868Z,90.81
2018-04-23T01:24:26.892Z,91.19
2018-04-23T01:25:41.572Z,91.28
2018-04-23T01:26:26.936Z,91.57
2018-04-23T01:27:26.960Z,91.86
2018-04-23T01:28:26.984Z,92.34
2018-04-23T01:29:26.749Z,91.96
2018-04-23T01:30:27.032Z,92.05
2018-04-23T01:31:27.053Z,92.63
2018-04-23T01:33:27.114Z,92.72
2018-04-23T01:34:27.126Z,92.54
2018-04-23T01:35:27.150Z,92.82
2018-04-23T01:36:26.915Z,91.86
2018-04-23T01:37:27.197Z,92.05
2018-04-23T01:38:27.228Z,92.24
2018-04-23T01:39:27.249Z,92.15
2018-04-23T01:40:41.932Z,92.54
2018-04-23T01:41:27.293Z,92.91
2018-04-23T01:42:27.317Z,92.15
2018-04-23T01:43:27.342Z,92.44
2018-04-23T01:44:27.106Z,92.82
2018-04-23T01:45:27.130Z,92.44
2018-04-23T01:47:27.437Z,93.4
2018-04-23T01:48:27.461Z,93.59
2018-04-23T01:49:27.488Z,94.12
2018-04-23T01:50:27.518Z,94.59
2018-04-23T01:51:27.538Z,94.98
2018-04-23T01:52:27.554Z,95.46
2018-04-23T01:53:27.580Z,95.26
2018-04-23T01:54:27.633Z,95.26
2018-04-23T01:55:27.628Z,95.46
2018-04-23T01:56:27.650Z,95.75
2018-04-23T01:57:27.413Z,96.42
2018-04-23T01:58:27.702Z,96.18
2018-04-23T01:59:27.721Z,96.75
2018-04-23T02:00:27.745Z,96.75
2018-04-23T02:01:27.766Z,96.84
2018-04-23T02:04:27.858Z,96.94
2018-04-23T02:05:27.863Z,96.7
2018-04-23T02:06:27.886Z,96.42
2018-04-23T02:07:27.909Z,96.56
2018-04-23T02:08:27.675Z,96.22
2018-04-23T02:09:27.958Z,96.42
2018-04-23T02:10:27.981Z,96.22
2018-04-23T02:11:28.003Z,96.66
2018-04-23T02:12:42.687Z,97.09
2018-04-23T02:13:28.050Z,96.47
2018-04-23T02:14:27.816Z,97.18
2018-04-23T02:15:28.099Z,96.56
2018-04-23T02:16:28.169Z,97.18
2018-04-23T02:17:28.145Z,96.51
2018-04-23T02:18:28.178Z,96.42
2018-04-23T02:19:27.937Z,96.32
2018-04-23T02:20:28.216Z,95.65
2018-04-23T02:21:28.239Z,95.56
2018-04-23T02:22:28.262Z,96.03
2018-04-23T02:23:28.287Z,96.99
2018-04-23T02:24:28.311Z,96.99
2018-04-23T02:25:28.338Z,96.8
2018-04-23T02:26:28.361Z,96.32
2018-04-23T02:27:28.382Z,96.7
2018-04-23T02:28:43.065Z,96.99
2018-04-23T02:29:28.429Z,97.56
2018-04-23T02:30:28.453Z,97.66
2018-04-23T02:31:28.484Z,98.1
2018-04-23T02:32:28.501Z,98.38
2018-04-23T02:33:28.526Z,97.9
2018-04-23T02:34:28.549Z,98.38
2018-04-23T02:35:28.576Z,98
2018-04-23T02:36:28.618Z,98
2018-04-23T02:37:28.620Z,98.19
2018-04-23T02:38:28.647Z,97.52
2018-04-23T02:39:28.424Z,97.9
2018-04-23T02:40:28.701Z,97.8
2018-04-23T02:41:28.453Z,97.61
2018-04-23T02:42:28.736Z,97.71
2018-04-23T02:43:28.759Z,97.8
2018-04-23T02:44:43.443Z,98.19
2018-04-23T02:45:28.809Z,98.28
2018-04-23T02:46:28.573Z,98
2018-04-23T02:47:28.873Z,98.38
2018-04-23T02:48:28.890Z,98.19
2018-04-23T02:49:28.901Z,97.9
2018-04-23T02:50:28.927Z,97.71
2018-04-23T02:51:28.692Z,99.15
2018-04-23T02:52:28.719Z,99.05
2018-04-23T02:53:28.736Z,99.58
2018-04-23T02:54:29.026Z,99.99
2018-04-23T02:55:29.058Z,99.99
2018-04-23T02:56:29.065Z,99.99
2018-04-23T02:57:29.096Z,99.99
2018-04-23T02:58:28.854Z,99.99
2018-04-23T02:59:29.146Z,99.99
2018-04-23T03:00:43.819Z,99.99
2018-04-23T03:01:29.184Z,99.99
2018-04-23T03:02:29.206Z,99.99
2018-04-23T03:03:29.239Z,99.99
2018-04-23T03:05:29.277Z,99.99
2018-04-23T03:06:29.300Z,99.99
2018-04-23T03:07:29.327Z,99.99
2018-04-23T03:08:29.351Z,99.99
2018-04-23T03:09:29.213Z,99.99
2018-04-23T03:10:29.399Z,99.99
2018-04-23T03:11:29.421Z,99.99
2018-04-23T03:12:29.442Z,99.99
2018-04-23T03:13:29.464Z,99.99
2018-04-23T03:14:29.490Z,99.99
2018-04-23T03:15:44.171Z,99.99
2018-04-23T03:16:29.536Z,99.99
2018-04-23T03:17:29.558Z,99.99
2018-04-23T03:18:29.322Z,99.99
2018-04-23T03:19:29.605Z,99.99
2018-04-23T03:20:29.627Z,99.99
2018-04-23T03:21:29.653Z,99.99
2018-04-23T03:22:29.416Z,99.99
2018-04-23T03:23:29.700Z,99.99
2018-04-23T03:25:29.744Z,99.99
2018-04-23T03:26:29.822Z,99.99
2018-04-23T03:27:29.791Z,99.99
2018-04-23T03:28:29.832Z,99.99
2018-04-23T03:29:29.838Z,99.99
2018-04-23T03:30:29.603Z,99.99
2018-04-23T03:31:29.891Z,99.99
2018-04-23T03:32:29.648Z,99.99
2018-04-23T03:33:29.932Z,99.99
2018-04-23T03:34:29.695Z,99.99
2018-04-23T03:35:29.977Z,99.99
2018-04-23T03:36:30.005Z,99.99
2018-04-23T03:37:30.030Z,99.99
2018-04-23T03:38:30.048Z,99.99
2018-04-23T03:39:30.070Z,99.99
2018-04-23T03:40:30.096Z,99.99
2018-04-23T03:42:30.143Z,99.99
2018-04-23T03:43:29.911Z,99.99
2018-04-23T03:44:30.306Z,99.99
2018-04-23T03:45:30.212Z,99.99
2018-04-23T03:46:30.233Z,99.99
2018-04-23T03:47:44.916Z,99.99
2018-04-23T03:48:30.280Z,99.99
2018-04-23T03:49:30.304Z,99.99
2018-04-23T03:50:30.371Z,99.99
2018-04-23T03:51:30.362Z,99.99
2018-04-23T03:52:30.373Z,99.99
2018-04-23T03:53:30.397Z,99.99
2018-04-23T03:54:30.417Z,99.99
2018-04-23T03:55:30.442Z,99.99
2018-04-23T03:56:30.467Z,99.99
2018-04-23T03:57:30.486Z,99.99
2018-04-23T03:58:30.511Z,99.99
2018-04-23T03:59:30.537Z,99.99
2018-04-23T04:00:30.560Z,99.99
2018-04-23T04:01:30.585Z,99.99
2018-04-23T04:02:30.604Z,99.99
2018-04-23T04:03:45.287Z,99.99
2018-04-23T04:05:30.674Z,99.99
2018-04-23T04:06:30.699Z,99.99
2018-04-23T04:07:30.719Z,99.99
2018-04-23T04:08:30.757Z,99.99
2018-04-23T04:09:30.766Z,99.99
2018-04-23T04:10:30.531Z,99.99
2018-04-23T04:11:30.816Z,99.99
2018-04-23T04:12:30.836Z,99.99
2018-04-23T04:13:30.860Z,99.99
2018-04-23T04:14:30.887Z,99.99
2018-04-23T04:15:30.906Z,99.99
2018-04-23T04:16:30.930Z,99.99
2018-04-23T04:17:30.957Z,99.99
2018-04-23T04:18:30.976Z,99.99
2018-04-23T04:19:45.657Z,99.99
2018-04-23T04:20:31.021Z,99.99
2018-04-23T04:21:31.046Z,99.99
2018-04-23T04:22:31.074Z,99.99
2018-04-23T04:23:31.096Z,99.99
2018-04-23T04:24:31.115Z,99.99
2018-04-23T04:26:31.163Z,99.99
2018-04-23T04:27:30.925Z,99.99
2018-04-23T04:28:31.206Z,99.99
2018-04-23T04:29:31.237Z,99.99
2018-04-23T04:30:31.252Z,99.99
2018-04-23T04:31:31.276Z,99.99
2018-04-23T04:32:31.304Z,99.99
2018-04-23T04:33:31.336Z,99.99
2018-04-23T04:34:31.347Z,99.99
2018-04-23T04:35:46.030Z,99.99
2018-04-23T04:36:31.397Z,99.99
2018-04-23T04:37:31.159Z,99.99
2018-04-23T04:38:31.181Z,99.99
2018-04-23T04:39:31.466Z,99.99
2018-04-23T04:40:31.228Z,99.99
2018-04-23T04:41:31.257Z,99.99
2018-04-23T04:42:31.276Z,99.99
2018-04-23T04:43:31.557Z,99.99
2018-04-23T04:44:31.581Z,99.99
2018-04-23T04:45:31.604Z,99.99
2018-04-23T04:46:31.628Z,99.99
2018-04-23T04:47:31.656Z,99.99
2018-04-23T04:48:31.675Z,99.99
2018-04-23T04:49:31.443Z,99.99
2018-04-23T04:50:46.384Z,99.99
2018-04-23T04:51:31.752Z,99.96
2018-04-23T04:52:31.770Z,98.81
2018-04-23T04:53:31.897Z,97.9
2018-04-23T04:54:31.831Z,96.47
2018-04-23T04:55:31.845Z,94.88
2018-04-23T04:56:31.865Z,92.91
2018-04-23T04:58:31.917Z,89.16
2018-04-23T04:59:31.684Z,87.53
2018-04-23T05:00:31.970Z,85.55
2018-04-23T05:01:31.996Z,84.34
2018-04-23T05:02:31.760Z,84.44
2018-04-23T05:03:32.036Z,83.96
2018-04-23T05:04:32.061Z,83.67
2018-04-23T05:05:32.091Z,82.27
2018-04-23T05:06:32.111Z,81.3
2018-04-23T05:07:32.138Z,80.58
2018-04-23T05:08:32.208Z,79.03
2018-04-23T05:09:32.188Z,77.76
2018-04-23T05:11:32.245Z,75.88
2018-04-23T05:12:32.268Z,75.3
2018-04-23T05:14:32.318Z,74.27
2018-04-23T05:15:32.346Z,72.83
2018-04-23T05:17:32.141Z,71.26
2018-04-23T05:18:32.431Z,70.29
2018-04-23T05:19:32.459Z,69.56
2018-04-23T05:20:32.223Z,69.07
2018-04-23T05:21:32.514Z,69.36
2018-04-23T05:22:47.197Z,68.59
2018-04-23T05:23:32.563Z,68.33
2018-04-23T05:24:32.592Z,68.14
2018-04-23T05:25:32.619Z,67.91
2018-04-23T05:26:32.647Z,68.59
2018-04-23T05:27:32.675Z,68.49
2018-04-23T05:28:32.707Z,68.78
2018-04-23T05:30:32.760Z,69.07
2018-04-23T05:31:32.800Z,68.55
2018-04-23T05:32:32.559Z,68.75
2018-04-23T05:33:32.844Z,68.26
2018-04-23T05:34:32.875Z,68.65
2018-04-23T05:35:32.641Z,68.46
2018-04-23T05:36:33.029Z,68.75
2018-04-23T05:37:32.984Z,68.3
2018-04-23T05:38:47.747Z,67.33
2018-04-23T05:39:33.016Z,66.59
2018-04-23T05:40:33.048Z,65.34
2018-04-23T05:41:33.079Z,63.92
2018-04-23T05:42:33.101Z,63.76
2018-04-23T05:43:33.131Z,63.46
2018-04-23T05:44:33.157Z,64.14
2018-04-23T05:45:33.190Z,62.24
2018-04-23T05:46:33.217Z,62.72
2018-04-23T05:47:33.245Z,63.11
2018-04-23T05:48:33.277Z,62.79
2018-04-23T05:49:33.304Z,62.21
2018-04-23T05:50:33.344Z,61.85
2018-04-23T05:51:33.369Z,61.85
2018-04-23T05:52:33.392Z,62.24
2018-04-23T05:53:33.420Z,62.24
2018-04-23T05:54:48.110Z,62.59
2018-04-23T05:55:33.480Z,62.43
2018-04-23T05:56:33.510Z,62.95
2018-04-23T05:57:33.537Z,62.98
2018-04-23T05:58:33.568Z,62.21
2018-04-23T06:00:33.367Z,62.3
2018-04-23T06:01:33.497Z,61.92
2018-04-23T06:02:33.685Z,63.18
2018-04-23T06:03:33.719Z,62.88
2018-04-23T06:04:33.744Z,63.92
2018-04-23T06:05:33.777Z,64.79
2018-04-23T06:06:33.805Z,64.95
2018-04-23T06:07:33.832Z,65.78
2018-04-23T06:08:33.860Z,66.94
2018-04-23T06:09:33.934Z,67.97
2018-04-23T06:10:48.578Z,66.82
2018-04-23T06:11:33.945Z,65.88
2018-04-23T06:12:33.976Z,65.24
2018-04-23T06:13:34.004Z,65.17
2018-04-23T06:14:34.038Z,63.92
2018-04-23T06:15:34.062Z,62.5
2018-04-23T06:16:34.090Z,59.84
2018-04-23T06:17:34.122Z,59.61
2018-04-23T06:18:34.153Z,57.97
2018-04-23T06:19:34.180Z,58
2018-04-23T06:20:34.209Z,58.26
2018-04-23T06:21:34.245Z,58.16
2018-04-23T06:22:34.011Z,60.14
2018-04-23T06:23:34.304Z,60.59
2018-04-23T06:24:34.332Z,62.4
2018-04-23T06:25:49.021Z,63.92
2018-04-23T06:26:34.389Z,65.24
2018-04-23T06:27:34.417Z,65.11
2018-04-23T06:28:34.446Z,65.85
2018-04-23T06:29:34.219Z,65.75
2018-04-23T06:30:34.521Z,66.14
2018-04-23T06:31:34.537Z,66.91
2018-04-23T06:32:34.565Z,67.78
2018-04-23T06:33:34.332Z,68.43
2018-04-23T06:34:34.623Z,68.13
2018-04-23T06:35:34.646Z,68.87
2018-04-23T06:36:34.679Z,69.16
2018-04-23T06:37:34.707Z,69.64
2018-04-23T06:38:34.729Z,69.35
2018-04-23T06:39:34.758Z,69.26
2018-04-23T06:40:34.785Z,70.22
2018-04-23T06:41:34.811Z,70.57
2018-04-23T06:42:34.837Z,71.44
2018-04-23T06:43:34.867Z,71.5
2018-04-23T06:44:34.634Z,71.64
2018-04-23T06:45:34.926Z,71.41
2018-04-23T06:46:34.948Z,71.7
2018-04-23T06:47:34.972Z,71.98
2018-04-23T06:48:34.999Z,71.89
2018-04-23T06:49:34.767Z,71.98
2018-04-23T06:50:35.052Z,72.66
2018-04-23T06:51:35.078Z,72.53
2018-04-23T06:52:35.108Z,73.2
2018-04-23T06:53:35.131Z,73.58
2018-04-23T06:54:35.156Z,73.24
2018-04-23T06:55:34.926Z,73.88
2018-04-23T06:56:35.209Z,73.1
2018-04-23T06:57:49.896Z,73.3
2018-04-23T06:58:35.260Z,73.88
2018-04-23T06:59:35.287Z,73.1
2018-04-23T07:00:35.313Z,73.53
2018-04-23T07:01:35.340Z,73.14
2018-04-23T07:02:35.365Z,72.95
2018-04-23T07:03:35.394Z,73.43
2018-04-23T07:04:35.422Z,72.56
2018-04-23T07:06:35.473Z,71.79
2018-04-23T07:07:35.496Z,71.6
2018-04-23T07:08:35.263Z,72.05
2018-04-23T07:09:35.547Z,72.43
2018-04-23T07:10:35.596Z,72.53
2018-04-23T07:11:35.600Z,73.1
2018-04-23T07:12:35.625Z,72.37
2018-04-23T07:13:50.312Z,71.98
2018-04-23T07:14:35.416Z,72.37
2018-04-23T07:15:35.701Z,72.47
2018-04-23T07:16:35.800Z,72.27
2018-04-23T07:17:35.493Z,72.47
2018-04-23T07:18:35.778Z,71.89
2018-04-23T07:19:35.549Z,71.79
2018-04-23T07:21:35.856Z,71.22
2018-04-23T07:22:35.880Z,71.6
2018-04-23T07:23:35.906Z,71.6
2018-04-23T07:24:35.932Z,71.7
2018-04-23T07:25:35.959Z,71.12
2018-04-23T07:26:35.983Z,71.02
2018-04-23T07:27:36.011Z,71.31
2018-04-23T07:28:35.779Z,71.02
2018-04-23T07:29:50.725Z,71.5
2018-04-23T07:30:36.090Z,71.79
2018-04-23T07:31:36.113Z,71.5
2018-04-23T07:32:36.139Z,71.5
2018-04-23T07:33:36.161Z,71.22
2018-04-23T07:34:36.189Z,70.73
2018-04-23T07:35:36.215Z,70.67
2018-04-23T07:36:36.242Z,70.06
2018-04-23T07:38:36.298Z,69.13
2018-04-23T07:39:36.319Z,69.07
2018-04-23T07:40:36.086Z,68.23
2018-04-23T07:41:36.110Z,65.95
2018-04-23T07:42:36.397Z,65.01
2018-04-23T07:43:36.430Z,63.98
2018-04-23T07:44:36.452Z,62.85
2018-04-23T07:45:51.138Z,62.85
2018-04-23T07:46:36.245Z,62.27
2018-04-23T07:47:36.531Z,61.46
2018-04-23T07:48:36.557Z,59.84
2018-04-23T07:49:36.586Z,57.26
2018-04-23T07:50:36.615Z,55.77
2018-04-23T07:51:36.385Z,55.41
2018-04-23T07:52:36.413Z,54.68
2018-04-23T07:54:36.479Z,51.33
2018-04-23T07:56:36.797Z,50.87
2018-04-23T07:57:36.822Z,51.92
2018-04-23T07:58:36.853Z,52.09
2018-04-23T07:59:36.885Z,52.37
2018-04-23T08:00:51.577Z,51.31
2018-04-23T08:01:36.952Z,51.26
2018-04-23T08:02:36.977Z,49.9
2018-04-23T08:03:37.009Z,50.97
2018-04-23T08:04:37.042Z,49.8
2018-04-23T08:05:37.072Z,49.63
2018-04-23T08:06:37.768Z,48.1
2018-04-23T08:07:37.139Z,47.71
2018-04-23T08:08:36.910Z,48.58
2018-04-23T08:10:37.234Z,49.15
2018-04-23T08:11:37.271Z,47.98
2018-04-23T08:12:37.040Z,47.61
2018-04-23T08:13:37.331Z,48.12
2018-04-23T08:14:37.364Z,48.1
2018-04-23T08:15:37.398Z,49.41
2018-04-23T08:16:37.172Z,50.36
2018-04-23T08:17:37.465Z,49.29
2018-04-23T08:18:37.242Z,50.65
2018-04-23T08:19:37.532Z,49.99
2018-04-23T08:21:37.336Z,48.61
2018-04-23T08:22:37.632Z,47.73
2018-04-23T08:23:37.666Z,47.63
2018-04-23T08:24:37.437Z,46.59
2018-04-23T08:25:37.469Z,46.69
2018-04-23T08:26:37.766Z,47.56
2018-04-23T08:27:37.537Z,48.02
2018-04-23T08:28:37.569Z,47.27
2018-04-23T08:29:37.866Z,47.92
2018-04-23T08:30:37.894Z,49
2018-04-23T08:31:37.927Z,47.44
2018-04-23T08:32:52.621Z,48.05
2018-04-23T08:33:37.734Z,47.27
2018-04-23T08:34:38.027Z,46.61
2018-04-23T08:35:37.799Z,46.95
2018-04-23T08:36:38.095Z,47.13
2018-04-23T08:37:38.226Z,48.66
2018-04-23T08:38:38.163Z,47.9
2018-04-23T08:39:37.930Z,48.07
2018-04-23T08:40:37.964Z,47.88
2018-04-23T08:41:38.257Z,47.69
2018-04-23T08:42:38.291Z,48.93
2018-04-23T08:44:38.356Z,49.02
2018-04-23T08:45:38.385Z,49.02
2018-04-23T08:46:38.420Z,49.12
2018-04-23T08:47:38.456Z,47.88
2018-04-23T08:48:53.204Z,47.49
2018-04-23T08:49:38.514Z,48.1
2018-04-23T08:51:38.580Z,47.2
2018-04-23T08:52:38.353Z,49.44
2018-04-23T08:54:38.679Z,49.61
2018-04-23T08:56:38.739Z,50.16
2018-04-23T08:57:38.777Z,49.99
2018-04-23T08:58:38.798Z,49.8
2018-04-23T08:59:38.834Z,49.17
2018-04-23T09:00:38.864Z,48.49
2018-04-23T09:01:38.634Z,49.12
2018-04-23T09:02:38.926Z,50.58
2018-04-23T09:03:38.955Z,50.92
2018-04-23T09:04:53.649Z,51.28
2018-04-23T09:05:39.018Z,51.11
2018-04-23T09:06:39.049Z,50.41
2018-04-23T09:07:39.080Z,50.46
2018-04-23T09:08:39.114Z,50.26
2018-04-23T09:09:39.141Z,51.11
2018-04-23T09:10:38.913Z,51.67
2018-04-23T09:12:39.240Z,52.08
2018-04-23T09:13:39.263Z,53.22
2018-04-23T09:14:39.292Z,52.93
2018-04-23T09:15:39.323Z,53.12
2018-04-23T09:16:39.353Z,53.39
2018-04-23T09:17:39.384Z,53.22
2018-04-23T09:18:39.411Z,53.61
2018-04-23T09:19:39.440Z,53.97
2018-04-23T09:20:54.130Z,54.81
2018-04-23T09:21:39.498Z,55.1
2018-04-23T09:22:39.529Z,54.81
2018-04-23T09:23:39.559Z,55.58
2018-04-23T09:24:39.588Z,55.68
2018-04-23T09:25:39.624Z,55.1
2018-04-23T09:26:39.384Z,56.92
2018-04-23T09:27:39.412Z,57.01
2018-04-23T09:28:39.441Z,56.82
2018-04-23T09:29:39.727Z,57.79
2018-04-23T09:30:39.769Z,57.81
2018-04-23T09:31:39.895Z,56.56
2018-04-23T09:32:39.817Z,57.5
2018-04-23T09:33:39.842Z,56.82
2018-04-23T09:34:39.876Z,56.04
2018-04-23T09:35:54.561Z,56.34
2018-04-23T09:36:39.929Z,56.34
2018-04-23T09:37:39.960Z,56.36
2018-04-23T09:38:39.986Z,55.32
2018-04-23T09:40:39.786Z,55.04
2018-04-23T09:41:40.069Z,55.49
2018-04-23T09:43:40.126Z,55.52
2018-04-23T09:44:40.246Z,55.88
2018-04-23T09:45:40.183Z,56.56
2018-04-23T09:46:40.212Z,56.56
2018-04-23T09:47:40.241Z,57.14
2018-04-23T09:48:40.276Z,57.91
2018-04-23T09:49:40.296Z,57.14
2018-04-23T09:50:40.067Z,58.01
2018-04-23T09:51:40.353Z,58.17
2018-04-23T09:52:40.385Z,58.75
2018-04-23T09:53:40.411Z,59.4
2018-04-23T09:54:40.439Z,60.37
2018-04-23T09:55:40.469Z,59.89
2018-04-23T09:56:40.493Z,61.15
2018-04-23T09:57:40.520Z,62.08
2018-04-23T09:59:40.318Z,63.98
2018-04-23T10:00:40.605Z,66.3
2018-04-23T10:01:40.374Z,66.98
2018-04-23T10:02:40.405Z,70.14
2018-04-23T10:03:40.686Z,70.14
2018-04-23T10:04:40.715Z,70.62
2018-04-23T10:05:40.748Z,71.84
2018-04-23T10:06:40.510Z,71.32
2018-04-23T10:07:55.459Z,75.18
2018-04-23T10:08:40.824Z,73.54
2018-04-23T10:09:40.851Z,73.73
2018-04-23T10:10:40.879Z,73.63
2018-04-23T10:11:40.907Z,73.83
2018-04-23T10:12:40.944Z,73.73
2018-04-23T10:13:40.964Z,73.83
2018-04-23T10:14:40.728Z,73.83
2018-04-23T10:15:41.014Z,74.16
2018-04-23T10:16:41.041Z,73.77
2018-04-23T10:17:41.070Z,74.06
2018-04-23T10:18:41.104Z,71.61
2018-04-23T10:19:41.122Z,73.06
2018-04-23T10:20:41.149Z,72.44
2018-04-23T10:21:40.916Z,73.6
2018-04-23T10:22:41.202Z,73.89
2018-04-23T10:23:55.895Z,73.89
2018-04-23T10:24:41.258Z,74.62
2018-04-23T10:26:41.310Z,74.95
2018-04-23T10:27:41.339Z,73.99
2018-04-23T10:29:41.130Z,74.85
2018-04-23T10:30:41.420Z,75.14
2018-04-23T10:31:41.445Z,75.43
2018-04-23T10:32:41.469Z,74.66
2018-04-23T10:33:41.502Z,76.01
2018-04-23T10:34:41.523Z,74.91
2018-04-23T10:35:41.550Z,75.68
2018-04-23T10:36:41.315Z,74.91
2018-04-23T10:37:41.342Z,75.36
2018-04-23T10:38:41.370Z,75.88
2018-04-23T10:39:56.315Z,75.68
2018-04-23T10:40:41.685Z,75.2
2018-04-23T10:41:41.730Z,75.68
2018-04-23T10:42:41.733Z,75.01
2018-04-23T10:43:41.759Z,76.8
2018-04-23T10:44:41.528Z,76.8
2018-04-23T10:45:41.817Z,76.13
2018-04-23T10:47:41.875Z,77.38
2018-04-23T10:48:41.895Z,77.58
2018-04-23T10:49:41.917Z,76.93
2018-04-23T10:50:41.686Z,77.13
2018-04-23T10:51:41.973Z,76.84
2018-04-23T10:52:41.998Z,75.24
2018-04-23T10:53:42.076Z,74.27
2018-04-23T10:54:42.069Z,74.02
2018-04-23T10:55:56.736Z,73.73
2018-04-23T10:56:42.102Z,73.58
2018-04-23T10:57:42.127Z,72.8
2018-04-23T10:58:42.156Z,72.8
2018-04-23T10:59:42.181Z,72.42
2018-04-23T11:00:41.948Z,72.52
2018-04-23T11:01:42.234Z,71.58
2018-04-23T11:02:42.000Z,71.1
2018-04-23T11:03:42.027Z,71.78
2018-04-23T11:04:42.318Z,70.81
2018-04-23T11:05:42.083Z,71
2018-04-23T11:06:42.364Z,69.94
2018-04-23T11:07:42.401Z,70.14
2018-04-23T11:08:42.160Z,69.49
2018-04-23T11:09:42.554Z,68.78
2018-04-23T11:10:57.133Z,68.88
2018-04-23T11:11:42.500Z,68.82
2018-04-23T11:12:42.525Z,67.46
2018-04-23T11:13:42.293Z,67.36
2018-04-23T11:14:42.580Z,67.4
2018-04-23T11:15:42.605Z,68.37
2018-04-23T11:16:42.633Z,68.17
2018-04-23T11:17:42.658Z,67.43
2018-04-23T11:19:42.712Z,65.92
2018-04-23T11:20:42.744Z,65.2
2018-04-23T11:21:42.766Z,66.08
2018-04-23T11:22:42.794Z,65.5
2018-04-23T11:23:42.820Z,65.01
2018-04-23T11:24:42.864Z,64.72
2018-04-23T11:25:42.879Z,64.14
2018-04-23T11:26:42.902Z,62.79
2018-04-23T11:27:42.930Z,62.21
2018-04-23T11:28:42.956Z,62.11
2018-04-23T11:29:42.985Z,62.79
2018-04-23T11:30:42.751Z,63.08
2018-04-23T11:31:43.040Z,63.95
2018-04-23T11:32:42.810Z,62.98
2018-04-23T11:33:43.092Z,64.21
2018-04-23T11:34:42.961Z,64.21
2018-04-23T11:35:42.888Z,63.56
2018-04-23T11:36:43.180Z,62.88
2018-04-23T11:37:43.201Z,62.98
2018-04-23T11:38:43.279Z,62.98
2018-04-23T11:39:43.001Z,63.37
2018-04-23T11:40:43.023Z,63.76
2018-04-23T11:41:43.049Z,63.66
2018-04-23T11:42:57.996Z,62.79
2018-04-23T11:43:43.363Z,61.27
2018-04-23T11:44:43.399Z,62.11
2018-04-23T11:45:43.417Z,61.95
2018-04-23T11:46:43.186Z,61.92
2018-04-23T11:47:43.214Z,62.69
2018-04-23T11:48:43.498Z,62.85
2018-04-23T11:49:43.527Z,63.85
2018-04-23T11:50:43.293Z,63.82
2018-04-23T11:51:43.578Z,63.92
2018-04-23T11:52:43.350Z,64.04
2018-04-23T11:53:43.643Z,63.66
2018-04-23T11:54:43.666Z,64.31
2018-04-23T11:55:43.429Z,62.69
2018-04-23T11:56:43.715Z,62.76
2018-04-23T11:57:43.742Z,65.14
2018-04-23T11:58:58.429Z,63.98
2018-04-23T11:59:43.794Z,62.95
2018-04-23T12:00:43.822Z,62.95
2018-04-23T12:02:43.617Z,62.24
2018-04-23T12:03:43.909Z,62.34
2018-04-23T12:04:43.672Z,62.73
2018-04-23T12:05:43.965Z,63.11
2018-04-23T12:07:43.752Z,63.02
2018-04-23T12:08:44.046Z,62.82
2018-04-23T12:09:44.168Z,62.92
2018-04-23T12:10:44.093Z,62.37
2018-04-23T12:11:44.120Z,62.73
2018-04-23T12:12:44.148Z,63.11
2018-04-23T12:13:44.172Z,61.98
2018-04-23T12:14:58.909Z,62.37
2018-04-23T12:15:43.965Z,62.56
2018-04-23T12:16:44.257Z,62.82
2018-04-23T12:17:44.278Z,62.47
2018-04-23T12:18:44.304Z,62.92
2018-04-23T12:19:44.333Z,62.92
2018-04-23T12:20:44.367Z,63.69
2018-04-23T12:21:44.591Z,63.21
2018-04-23T12:22:44.413Z,63.98
2018-04-23T12:23:44.439Z,63.5
2018-04-23T12:24:44.470Z,63.73
2018-04-23T12:26:44.525Z,64.89
2018-04-23T12:27:44.546Z,63.18
2018-04-23T12:28:44.573Z,61.63
2018-04-23T12:29:44.341Z,61.63
2018-04-23T12:30:59.287Z,62.11
2018-04-23T12:32:44.681Z,61.36
2018-04-23T12:33:44.448Z,60.4
2018-04-23T12:34:44.734Z,60.78
2018-04-23T12:35:44.762Z,61.08
2018-04-23T12:36:44.529Z,60.88
2018-04-23T12:38:44.844Z,61.15
2018-04-23T12:39:44.973Z,60.78
2018-04-23T12:40:44.906Z,60.98
2018-04-23T12:41:44.958Z,61.85
2018-04-23T12:42:44.950Z,61.46
2018-04-23T12:43:44.977Z,60.98
2018-04-23T12:44:44.745Z,60.59
2018-04-23T12:45:59.831Z,61.46
2018-04-23T12:46:45.059Z,61.27
2018-04-23T12:47:45.088Z,60.88
2018-04-23T12:48:45.123Z,61.05
2018-04-23T12:49:45.152Z,61.24
2018-04-23T12:50:45.170Z,60.37
2018-04-23T12:51:45.194Z,61.21
2018-04-23T12:53:44.988Z,60.92
2018-04-23T12:54:45.276Z,60.92
2018-04-23T12:56:45.328Z,60.34
2018-04-23T12:57:45.360Z,60.14
2018-04-23T12:58:45.382Z,60.82
2018-04-23T12:59:45.410Z,60.08
2018-04-23T13:00:45.178Z,59.5
2018-04-23T13:01:45.203Z,60.24
2018-04-23T13:02:45.491Z,60.92
2018-04-23T13:03:45.516Z,59.66
2018-04-23T13:04:45.544Z,59.59
2018-04-23T13:05:45.569Z,59.98
2018-04-23T13:06:45.601Z,59.82
2018-04-23T13:09:45.676Z,58.47
2018-04-23T13:10:45.704Z,59.43
2018-04-23T13:11:45.735Z,59.82
2018-04-23T13:12:45.759Z,59.79
2018-04-23T13:13:45.527Z,59.72
2018-04-23T13:14:45.812Z,59.82
2018-04-23T13:15:45.840Z,59.43
2018-04-23T13:16:45.867Z,60.37
2018-04-23T13:18:00.553Z,59.31
2018-04-23T13:18:45.665Z,58.07
2018-04-23T13:19:45.948Z,58.14
2018-04-23T13:20:45.975Z,57.79
2018-04-23T13:21:46.002Z,58.37
2018-04-23T13:22:46.034Z,58.65
2018-04-23T13:23:46.055Z,58.56
2018-04-23T13:24:46.082Z,57.81
2018-04-23T13:25:46.114Z,57.71
2018-04-23T13:26:46.137Z,57.79
2018-04-23T13:27:45.904Z,57.81
2018-04-23T13:28:46.190Z,57.71
2018-04-23T13:29:46.219Z,57.71
2018-04-23T13:30:46.250Z,56.97
2018-04-23T13:31:46.012Z,55.81
2018-04-23T13:32:46.299Z,55.62
2018-04-23T13:34:00.987Z,53.67
2018-04-23T13:34:46.354Z,53.58
2018-04-23T13:35:46.380Z,55.1
2018-04-23T13:36:46.497Z,54.43
2018-04-23T13:37:46.434Z,54.13
2018-04-23T13:38:46.462Z,54.62
2018-04-23T13:41:46.548Z,54.59
2018-04-23T13:42:46.660Z,54.21
2018-04-23T13:44:46.631Z,53.94
2018-04-23T13:45:46.653Z,53.55
2018-04-23T13:46:46.684Z,53.81
2018-04-23T13:47:46.706Z,53.43
2018-04-23T13:48:46.735Z,53.43
2018-04-23T13:50:01.422Z,54.27